Time;durP1;ratioP1;P1;durP2;ratioP2;P2;SDS_P1;SDS_P2;PMS_P1;PMS_P2;Temp;Humidity;BMP_temperature;BMP_pressure;BME280_temperature;BME280_humidity;BME280_pressure;Samples;Min_cycle;Max_cycle;Signal;HPM_P1;HPM_P2
2021/01/22 00:01:07;;;;;;;7.85;7.05;;;;;;;;;;5062640;28;24423;-49
2021/01/22 00:03:32;;;;;;;7.90;7.10;;;;;;;;;;5069918;28;24905;-50
2021/01/22 00:05:57;;;;;;;10.15;8.93;;;;;;;;;;5069926;28;24468;-50
2021/01/22 00:08:22;;;;;;;10.93;9.82;;;;;;;;;;5069153;28;20223;-49
2021/01/22 00:10:47;;;;;;;12.80;10.60;;;;;;;;;;5072189;28;20644;-50
2021/01/22 00:13:13;;;;;;;12.45;11.15;;;;;;;;;;5071650;28;20177;-48
2021/01/22 00:15:38;;;;;;;14.90;13.30;;;;;;;;;;5070895;28;20187;-50
2021/01/22 00:18:03;;;;;;;15.25;13.15;;;;;;;;;;5069322;28;20225;-49
2021/01/22 00:20:28;;;;;;;15.60;13.97;;;;;;;;;;5070680;28;20214;-49
2021/01/22 00:22:53;;;;;;;18.03;14.90;;;;;;;;;;5063684;28;20163;-48
2021/01/22 00:25:18;;;;;;;16.90;14.93;;;;;;;;;;5070745;28;20222;-49
2021/01/22 00:27:44;;;;;;;19.07;15.90;;;;;;;;;;5071018;28;20173;-49
2021/01/22 00:30:10;;;;;;;17.80;16.00;;;;;;;;;;5067953;28;24411;-49
2021/01/22 00:32:35;;;;;;;16.65;14.95;;;;;;;;;;5069787;28;24425;-50
2021/01/22 00:35:01;;;;;;;18.63;16.63;;;;;;;;;;5070411;28;20188;-49
2021/01/22 00:37:26;;;;;;;18.63;15.80;;;;;;;;;;5070852;28;20190;-49
2021/01/22 00:39:51;;;;;;;17.37;15.40;;;;;;;;;;5068693;28;20588;-49
2021/01/22 00:42:16;;;;;;;17.10;14.65;;;;;;;;;;5070703;28;20222;-49
2021/01/22 00:44:41;;;;;;;16.48;14.73;;;;;;;;;;5070764;28;20175;-50
2021/01/22 00:47:06;;;;;;;17.52;14.93;;;;;;;;;;5072426;28;20203;-49
2021/01/22 00:49:31;;;;;;;;;;;;;;;;;;5068516;28;20078;-49
2021/01/22 00:51:57;;;;;;;;;;;;;;;;;;5071328;28;19931;-49
2021/01/22 00:54:22;;;;;;;;;;;;;;;;;;5068995;28;19912;-49
2021/01/22 00:56:47;;;;;;;;;;;;;;;;;;5068952;28;19926;-48
2021/01/22 00:59:12;;;;;;;;;;;;;;;;;;5066206;28;19919;-49
2021/01/22 01:01:37;;;;;;;;;;;;;;;;;;5065469;28;20279;-49
2021/01/22 01:04:02;;;;;;;14.75;12.40;;;;;;;;;;5068076;28;20236;-48
2021/01/22 01:06:27;;;;;;;15.30;13.80;;;;;;;;;;5068739;28;24422;-48
2021/01/22 01:08:52;;;;;;;15.40;13.90;;;;;;;;;;5067099;28;24521;-49
2021/01/22 01:11:17;;;;;;;15.13;13.73;;;;;;;;;;5068360;28;24587;-49
2021/01/22 01:13:43;;;;;;;14.83;13.33;;;;;;;;;;5065924;28;24494;-49
2021/01/22 01:16:08;;;;;;;15.87;14.23;;;;;;;;;;5067844;28;24472;-49
2021/01/22 01:18:33;;;;;;;16.40;14.70;;;;;;;;;;5063403;28;25002;-48
2021/01/22 01:20:58;;;;;;;16.30;14.60;;;;;;;;;;5068991;28;24445;-47
2021/01/22 01:23:23;;;;;;;14.87;13.47;;;;;;;;;;5065743;28;24446;-49
2021/01/22 01:25:49;;;;;;;15.27;13.77;;;;;;;;;;5065975;28;24546;-49
2021/01/22 01:28:14;;;;;;;15.70;14.10;;;;;;;;;;5064867;28;24399;-48
2021/01/22 01:30:39;;;;;;;16.00;14.50;;;;;;;;;;5068372;28;24438;-48
2021/01/22 01:33:04;;;;;;;15.97;14.37;;;;;;;;;;5064961;28;25025;-49
2021/01/22 01:35:29;;;;;;;16.17;14.57;;;;;;;;;;5068548;28;24648;-48
2021/01/22 01:37:55;;;;;;;15.90;14.33;;;;;;;;;;5059139;28;24755;-48
2021/01/22 01:40:20;;;;;;;14.80;13.40;;;;;;;;;;5066592;28;24438;-49
2021/01/22 01:42:45;;;;;;;15.15;13.45;;;;;;;;;;5068785;28;24446;-50
2021/01/22 01:45:11;;;;;;;15.02;13.43;;;;;;;;;;5068437;28;25035;-50
2021/01/22 01:47:36;;;;;;;15.13;13.63;;;;;;;;;;5070398;28;24406;-48
2021/01/22 01:50:01;;;;;;;15.20;13.63;;;;;;;;;;5064643;28;24441;-49
2021/01/22 01:52:26;;;;;;;15.47;13.97;;;;;;;;;;5068227;28;24543;-49
2021/01/22 01:54:52;;;;;;;14.63;13.25;;;;;;;;;;5067930;28;24418;-49
2021/01/22 01:57:18;;;;;;;13.98;12.68;;;;;;;;;;5067336;28;24964;-48
2021/01/22 01:59:43;;;;;;;15.10;13.70;;;;;;;;;;5063878;28;24457;-49
2021/01/22 02:02:09;;;;;;;14.20;12.80;;;;;;;;;;5065659;28;24560;-49
2021/01/22 02:04:34;;;;;;;14.50;13.10;;;;;;;;;;5067741;28;24442;-48
2021/01/22 02:06:59;;;;;;;15.25;13.75;;;;;;;;;;5068159;28;24403;-48
2021/01/22 02:09:25;;;;;;;14.00;12.70;;;;;;;;;;5065535;28;24536;-50
2021/01/22 02:11:50;;;;;;;14.23;12.88;;;;;;;;;;5068244;28;24801;-49
2021/01/22 02:14:16;;;;;;;14.90;13.50;;;;;;;;;;5059386;28;24425;-48
2021/01/22 02:16:41;;;;;;;14.57;13.17;;;;;;;;;;5068151;28;24422;-49
2021/01/22 02:19:08;;;;;;;15.23;13.65;;;;;;;;;;5066287;28;24820;-49
2021/01/22 02:21:34;;;;;;;14.80;13.30;;;;;;;;;;5065593;28;24411;-49
2021/01/22 02:24:02;;;;;;;14.95;13.55;;;;;;;;;;5068476;28;24826;-49
2021/01/22 02:26:28;;;;;;;14.13;12.82;;;;;;;;;;5066842;28;24433;-49
2021/01/22 02:28:56;;;;;;;15.50;13.98;;;;;;;;;;5063169;28;24501;-49
2021/01/22 02:31:22;;;;;;;15.15;13.18;;;;;;;;;;5067438;28;24407;-49
2021/01/22 02:33:48;;;;;;;15.30;13.80;;;;;;;;;;5068040;28;24518;-49
2021/01/22 02:36:13;;;;;;;15.48;13.95;;;;;;;;;;5067775;28;24493;-49
2021/01/22 02:38:39;;;;;;;14.35;12.93;;;;;;;;;;5065267;28;25161;-50
2021/01/22 02:41:05;;;;;;;16.05;14.48;;;;;;;;;;5066357;28;24488;-49
2021/01/22 02:43:31;;;;;;;15.70;14.20;;;;;;;;;;5059239;28;24826;-48
2021/01/22 02:45:57;;;;;;;15.68;14.18;;;;;;;;;;5066398;28;24468;-50
2021/01/22 02:48:23;;;;;;;16.45;14.85;;;;;;;;;;5068313;28;24506;-50
2021/01/22 02:50:48;;;;;;;15.55;14.05;;;;;;;;;;5063410;28;24415;-49
2021/01/22 02:53:13;;;;;;;15.13;13.63;;;;;;;;;;5067390;28;24426;-48
2021/01/22 02:55:38;;;;;;;16.37;14.67;;;;;;;;;;5066474;28;25033;-49
2021/01/22 02:58:12;;;;;;;15.93;14.33;;;;;;;;;;5057386;28;24544;-49
2021/01/22 03:00:40;;;;;;;15.77;14.27;;;;;;;;;;5066955;28;24456;-48
2021/01/22 03:03:07;;;;;;;15.77;14.18;;;;;;;;;;5067420;28;25014;-48
2021/01/22 03:05:34;;;;;;;14.30;12.85;;;;;;;;;;5067330;28;24419;-48
2021/01/22 03:08:12;;;;;;;14.10;12.80;;;;;;;;;;5069069;28;24576;-49
2021/01/22 03:10:37;;;;;;;14.30;12.80;;;;;;;;;;5066474;28;24510;-48
2021/01/22 03:13:03;;;;;;;14.98;13.38;;;;;;;;;;5069200;28;24514;-49
2021/01/22 03:15:29;;;;;;;14.90;13.38;;;;;;;;;;5072248;28;24446;-48
2021/01/22 03:18:13;;;;;;;13.90;12.50;;;;;;;;;;5070896;28;24536;-48
2021/01/22 03:20:40;;;;;;;14.80;13.30;;;;;;;;;;5062153;28;24431;-49
2021/01/22 03:23:05;;;;;;;13.90;12.60;;;;;;;;;;5062703;28;24419;-49
2021/01/22 03:25:31;;;;;;;13.97;12.77;;;;;;;;;;5071024;28;24443;-49
2021/01/22 03:27:56;;;;;;;14.10;12.70;;;;;;;;;;5065443;28;24863;-48
2021/01/22 03:30:21;;;;;;;14.10;12.80;;;;;;;;;;5068932;28;24429;-48
2021/01/22 03:32:46;;;;;;;14.30;12.80;;;;;;;;;;5070220;28;24468;-48
2021/01/22 03:35:12;;;;;;;14.15;12.75;;;;;;;;;;5063280;28;24947;-48
2021/01/22 03:37:37;;;;;;;14.50;13.10;;;;;;;;;;5070672;28;24483;-49
2021/01/22 03:40:02;;;;;;;14.05;12.65;;;;;;;;;;5067160;28;24812;-49
2021/01/22 03:42:27;;;;;;;14.53;13.10;;;;;;;;;;5070235;28;24486;-49
2021/01/22 03:44:52;;;;;;;14.63;13.20;;;;;;;;;;5071044;28;24406;-49
2021/01/22 03:47:17;;;;;;;14.52;13.13;;;;;;;;;;5071521;28;24774;-49
2021/01/22 03:49:43;;;;;;;14.10;12.80;;;;;;;;;;5065542;28;24426;-49
2021/01/22 03:52:08;;;;;;;14.60;13.20;;;;;;;;;;5069744;28;24426;-49
2021/01/22 03:54:33;;;;;;;15.18;13.73;;;;;;;;;;5068033;28;24891;-49
2021/01/22 03:56:58;;;;;;;15.50;13.90;;;;;;;;;;5069863;28;24416;-48
2021/01/22 03:59:23;;;;;;;13.55;12.25;;;;;;;;;;5068267;28;24434;-49
2021/01/22 04:01:48;;;;;;;15.43;13.83;;;;;;;;;;5069953;28;24603;-49
2021/01/22 04:04:13;;;;;;;14.75;13.25;;;;;;;;;;5069819;28;24897;-49
2021/01/22 04:06:39;;;;;;;15.45;13.90;;;;;;;;;;5064634;28;24422;-48
2021/01/22 04:09:04;;;;;;;16.02;14.50;;;;;;;;;;5065995;28;24533;-49
2021/01/22 04:11:29;;;;;;;15.45;13.45;;;;;;;;;;5070337;28;24876;-49
2021/01/22 04:13:55;;;;;;;15.23;13.73;;;;;;;;;;5070246;28;24418;-48
2021/01/22 04:16:20;;;;;;;15.50;14.00;;;;;;;;;;5069702;28;24441;-49
2021/01/22 04:18:45;;;;;;;14.70;13.30;;;;;;;;;;5066380;28;24505;-48
2021/01/22 04:21:10;;;;;;;14.73;13.43;;;;;;;;;;5067332;28;25050;-48
2021/01/22 04:23:35;;;;;;;16.67;14.30;;;;;;;;;;5069857;28;24953;-49
2021/01/22 04:26:00;;;;;;;16.33;14.60;;;;;;;;;;5069541;28;25102;-49
2021/01/22 04:28:26;;;;;;;15.77;14.17;;;;;;;;;;5070287;28;24423;-49
2021/01/22 04:30:51;;;;;;;15.14;13.64;;;;;;;;;;5065524;28;24411;-49
2021/01/22 04:33:16;;;;;;;15.77;14.27;;;;;;;;;;5068238;28;24446;-48
2021/01/22 04:35:41;;;;;;;16.90;15.20;;;;;;;;;;5069501;28;24461;-49
2021/01/22 04:38:06;;;;;;;15.50;14.00;;;;;;;;;;5070250;28;24473;-49
2021/01/22 04:40:31;;;;;;;17.20;15.50;;;;;;;;;;5065105;28;25006;-48
2021/01/22 04:42:57;;;;;;;15.50;14.00;;;;;;;;;;5069117;28;24411;-48
2021/01/22 04:45:22;;;;;;;15.57;14.17;;;;;;;;;;5069572;28;24414;-49
2021/01/22 04:47:47;;;;;;;16.53;14.93;;;;;;;;;;5069262;28;24814;-50
2021/01/22 04:50:17;;;;;;;15.70;14.10;;;;;;;;;;5065105;28;25031;-49
2021/01/22 04:52:44;;;;;;;16.40;14.80;;;;;;;;;;5068607;28;24422;-49
2021/01/22 04:55:14;;;;;;;17.05;15.35;;;;;;;;;;5066064;28;24420;-50
2021/01/22 04:57:43;;;;;;;16.92;15.23;;;;;;;;;;5068526;28;24973;-49
2021/01/22 05:00:10;;;;;;;16.92;15.32;;;;;;;;;;5060073;28;24453;-49
2021/01/22 05:02:35;;;;;;;17.30;15.60;;;;;;;;;;5065231;28;24476;-49
2021/01/22 05:05:00;;;;;;;17.80;16.00;;;;;;;;;;5065326;28;24415;-48
2021/01/22 05:07:25;;;;;;;17.53;15.40;;;;;;;;;;5073851;28;24417;-48
2021/01/22 05:09:50;;;;;;;16.70;15.00;;;;;;;;;;5063980;28;24897;-48
2021/01/22 05:12:16;;;;;;;17.20;15.50;;;;;;;;;;5066990;28;24431;-48
2021/01/22 05:14:41;;;;;;;17.40;15.70;;;;;;;;;;5062861;28;24419;-48
2021/01/22 05:17:10;;;;;;;18.87;17.07;;;;;;;;;;5064570;28;24808;-48
2021/01/22 05:19:36;;;;;;;18.15;16.35;;;;;;;;;;5063578;28;24980;-48
2021/01/22 05:22:02;;;;;;;19.98;17.98;;;;;;;;;;5064529;28;24437;-48
2021/01/22 05:24:28;;;;;;;19.40;17.50;;;;;;;;;;5064196;28;24422;-49
2021/01/22 05:27:03;;;;;;;19.67;17.77;;;;;;;;;;5067564;28;24533;-48
2021/01/22 05:29:29;;;;;;;19.27;17.45;;;;;;;;;;5067289;28;24782;-50
2021/01/22 05:31:54;;;;;;;19.60;17.70;;;;;;;;;;5069131;28;24498;-49
2021/01/22 05:34:20;;;;;;;19.65;17.70;;;;;;;;;;5061828;28;25126;-50
2021/01/22 05:36:49;;;;;;;19.23;17.43;;;;;;;;;;5067291;28;24414;-51
2021/01/22 05:39:19;;;;;;;20.08;18.20;;;;;;;;;;5066523;28;24419;-49
2021/01/22 05:41:54;;;;;;;19.85;18.05;;;;;;;;;;5061215;28;25033;-49
2021/01/22 05:44:23;;;;;;;20.20;18.15;;;;;;;;;;5069371;28;24414;-51
2021/01/22 05:47:01;;;;;;;21.30;19.20;;;;;;;;;;5068328;28;24478;-51
2021/01/22 05:49:27;;;;;;;20.00;18.00;;;;;;;;;;5058194;28;24506;-48
2021/01/22 05:51:52;;;;;;;20.47;18.37;;;;;;;;;;5065697;28;24511;-48
2021/01/22 05:54:37;;;;;;;20.77;18.57;;;;;;;;;;5062785;28;24414;-49
2021/01/22 05:57:03;;;;;;;21.30;19.10;;;;;;;;;;5067791;28;24497;-48
2021/01/22 05:59:28;;;;;;;20.00;18.00;;;;;;;;;;5066721;28;24426;-49
2021/01/22 06:01:53;;;;;;;20.97;18.90;;;;;;;;;;5067370;28;24518;-49
2021/01/22 06:04:18;;;;;;;20.60;18.50;;;;;;;;;;5061456;28;24427;-48
2021/01/22 06:06:43;;;;;;;21.00;18.90;;;;;;;;;;5063990;28;24518;-49
2021/01/22 06:09:09;;;;;;;20.30;18.40;;;;;;;;;;5065097;28;24414;-48
2021/01/22 06:11:34;;;;;;;20.30;18.30;;;;;;;;;;5060331;28;24417;-49
2021/01/22 06:14:03;;;;;;;19.23;17.33;;;;;;;;;;5064490;28;24453;-49
2021/01/22 06:16:28;;;;;;;20.10;18.00;;;;;;;;;;5063141;28;24542;-49
2021/01/22 06:18:57;;;;;;;19.60;17.70;;;;;;;;;;5063406;28;24418;-48
2021/01/22 06:21:27;;;;;;;20.23;18.23;;;;;;;;;;5060918;28;24773;-49
2021/01/22 06:23:52;;;;;;;19.60;17.70;;;;;;;;;;5063168;28;25008;-47
2021/01/22 06:26:20;;;;;;;19.50;17.60;;;;;;;;;;5061296;28;24516;-48
2021/01/22 06:28:49;;;;;;;19.77;17.77;;;;;;;;;;5064212;28;24411;-48
2021/01/22 06:31:16;;;;;;;19.10;17.20;;;;;;;;;;5059300;28;24777;-48
2021/01/22 06:33:41;;;;;;;18.02;16.27;;;;;;;;;;5063752;28;24479;-48
2021/01/22 06:36:07;;;;;;;19.20;17.30;;;;;;;;;;5063022;28;24530;-49
2021/01/22 06:38:32;;;;;;;18.67;16.85;;;;;;;;;;5062137;28;24414;-48
2021/01/22 06:40:58;;;;;;;18.20;16.40;;;;;;;;;;5060695;28;24458;-48
2021/01/22 06:43:23;;;;;;;18.03;16.33;;;;;;;;;;5062904;28;24415;-48
2021/01/22 06:45:48;;;;;;;18.17;16.38;;;;;;;;;;5063298;28;24434;-48
2021/01/22 06:48:13;;;;;;;17.65;15.95;;;;;;;;;;5065823;28;24829;-49
2021/01/22 06:50:39;;;;;;;18.10;16.30;;;;;;;;;;5061551;28;24442;-48
2021/01/22 06:53:11;;;;;;;17.90;16.10;;;;;;;;;;5060672;28;25247;-49
2021/01/22 06:55:52;;;;;;;18.00;16.30;;;;;;;;;;5063184;28;24491;-48
2021/01/22 06:58:27;;;;;;;18.10;16.30;;;;;;;;;;5056929;28;24995;-49
2021/01/22 07:00:53;;;;;;;17.25;15.55;;;;;;;;;;5056995;28;24972;-48
2021/01/22 07:03:36;;;;;;;17.97;16.17;;;;;;;;;;5066283;28;24423;-48
2021/01/22 07:06:02;;;;;;;17.38;15.68;;;;;;;;;;5064764;28;24588;-49
2021/01/22 07:08:46;;;;;;;16.77;15.07;;;;;;;;;;5066398;28;24415;-49
2021/01/22 07:11:11;;;;;;;16.63;15.00;;;;;;;;;;5065409;28;24905;-50
2021/01/22 07:13:37;;;;;;;16.08;14.48;;;;;;;;;;5064853;28;24817;-50
2021/01/22 07:16:06;;;;;;;16.30;14.70;;;;;;;;;;5066991;28;24419;-48
2021/01/22 07:18:32;;;;;;;15.63;14.02;;;;;;;;;;5063095;28;24442;-48
2021/01/22 07:21:16;;;;;;;15.93;14.43;;;;;;;;;;5067503;28;24442;-48
2021/01/22 07:23:42;;;;;;;15.10;13.70;;;;;;;;;;5066173;28;24419;-49
2021/01/22 07:26:08;;;;;;;15.23;13.82;;;;;;;;;;5067024;28;24449;-50
2021/01/22 07:28:47;;;;;;;14.63;13.23;;;;;;;;;;5067048;28;24411;-49
2021/01/22 07:31:33;;;;;;;14.40;13.00;;;;;;;;;;5065924;28;24426;-49
2021/01/22 07:33:58;;;;;;;15.38;13.88;;;;;;;;;;5063011;28;24422;-49
2021/01/22 07:36:23;;;;;;;13.75;12.32;;;;;;;;;;5066526;28;24426;-50
2021/01/22 07:38:50;;;;;;;13.97;12.63;;;;;;;;;;5067265;28;24407;-50
2021/01/22 07:41:19;;;;;;;14.10;12.70;;;;;;;;;;5066136;28;24972;-48
2021/01/22 07:43:44;;;;;;;13.88;12.48;;;;;;;;;;5066445;28;24516;-48
2021/01/22 07:46:10;;;;;;;27.52;14.38;;;;;;;;;;5066070;28;24446;-49
2021/01/22 07:48:36;;;;;;;12.50;11.32;;;;;;;;;;5072584;28;24949;-48
2021/01/22 07:51:19;;;;;;;13.30;12.00;;;;;;;;;;5067959;28;24427;-50
2021/01/22 07:53:44;;;;;;;12.70;10.87;;;;;;;;;;5063675;28;24469;-49
2021/01/22 07:56:10;;;;;;;11.43;10.32;;;;;;;;;;5068533;28;24840;-49
2021/01/22 07:58:36;;;;;;;12.33;11.13;;;;;;;;;;5071129;28;24422;-48
2021/01/22 08:01:02;;;;;;;12.30;11.10;;;;;;;;;;5066459;28;24556;-49
2021/01/22 08:03:41;;;;;;;12.63;11.32;;;;;;;;;;5069373;28;24462;-49
2021/01/22 08:06:07;;;;;;;13.00;11.70;;;;;;;;;;5068730;28;24423;-49
2021/01/22 08:08:32;;;;;;;12.88;11.50;;;;;;;;;;5060855;28;25310;-49
2021/01/22 08:10:57;;;;;;;11.70;10.60;;;;;;;;;;5064764;28;24422;-49
2021/01/22 08:13:22;;;;;;;12.40;11.20;;;;;;;;;;5068606;28;24422;-49
2021/01/22 08:16:01;;;;;;;12.53;11.33;;;;;;;;;;5067872;28;24825;-49
2021/01/22 08:18:27;;;;;;;13.13;11.80;;;;;;;;;;5068686;28;24544;-48
2021/01/22 08:20:52;;;;;;;12.23;11.13;;;;;;;;;;5063659;28;24529;-49
2021/01/22 08:23:18;;;;;;;13.23;11.83;;;;;;;;;;5070399;28;24497;-50
2021/01/22 08:25:43;;;;;;;13.52;11.90;;;;;;;;;;5069038;28;24967;-50
2021/01/22 08:28:08;;;;;;;13.63;12.20;;;;;;;;;;5071647;28;24419;-49
2021/01/22 08:30:34;;;;;;;13.52;12.15;;;;;;;;;;5062073;28;24423;-50
2021/01/22 08:33:00;;;;;;;13.57;12.18;;;;;;;;;;5070433;28;24423;-48
2021/01/22 08:35:26;;;;;;;14.23;12.05;;;;;;;;;;5074483;28;24422;-50
2021/01/22 08:37:52;;;;;;;12.90;11.55;;;;;;;;;;5064530;28;24423;-48
2021/01/22 08:40:17;;;;;;;12.63;11.32;;;;;;;;;;5071794;28;24435;-48
2021/01/22 08:42:56;;;;;;;13.00;11.40;;;;;;;;;;5062148;28;24426;-50
2021/01/22 08:45:22;;;;;;;11.45;10.35;;;;;;;;;;5072541;28;24426;-49
2021/01/22 08:47:47;;;;;;;12.67;11.37;;;;;;;;;;5067009;28;24444;-50
2021/01/22 08:50:16;;;;;;;11.97;10.77;;;;;;;;;;5069864;28;24407;-49
2021/01/22 08:52:41;;;;;;;11.60;10.40;;;;;;;;;;5068897;28;24607;-49
2021/01/22 08:55:17;;;;;;;11.52;10.32;;;;;;;;;;5067230;28;24990;-49
2021/01/22 08:57:57;;;;;;;10.77;9.77;;;;;;;;;;5066104;28;24510;-49
2021/01/22 09:00:26;;;;;;;11.65;10.45;;;;;;;;;;5064110;28;24443;-49
2021/01/22 09:02:51;;;;;;;11.35;10.15;;;;;;;;;;5060951;28;24426;-50
2021/01/22 09:05:16;;;;;;;12.03;10.83;;;;;;;;;;5069030;28;24770;-49
2021/01/22 09:07:42;;;;;;;11.03;9.93;;;;;;;;;;5065741;28;24406;-49
2021/01/22 09:10:27;;;;;;;11.57;9.63;;;;;;;;;;5066559;28;24549;-50
2021/01/22 09:12:53;;;;;;;10.13;9.13;;;;;;;;;;5060459;28;24431;-49
2021/01/22 09:15:18;;;;;;;10.37;9.27;;;;;;;;;;5069141;28;24758;-50
2021/01/22 09:17:49;;;;;;;10.43;9.43;;;;;;;;;;5066702;28;24648;-49
2021/01/22 09:20:19;;;;;;;9.85;8.85;;;;;;;;;;5068501;28;24434;-50
2021/01/22 09:22:45;;;;;;;9.27;8.38;;;;;;;;;;5068541;28;24781;-50
2021/01/22 09:25:11;;;;;;;;;;;;;;;;;;5070769;28;20107;-50
2021/01/22 09:27:37;;;;;;;9.57;8.60;;;;;;;;;;5060000;28;20179;-49
2021/01/22 09:30:07;;;;;;;7.65;6.95;;;;;;;;;;5065930;28;24772;-50
2021/01/22 09:32:32;;;;;;;8.40;7.60;;;;;;;;;;5068926;28;24406;-49
2021/01/22 09:34:57;;;;;;;7.90;7.20;;;;;;;;;;5067110;28;24770;-50
2021/01/22 09:37:22;;;;;;;9.38;8.38;;;;;;;;;;5060029;28;25086;-50
2021/01/22 09:39:48;;;;;;;11.20;10.20;;;;;;;;;;5067805;28;24474;-51
2021/01/22 09:42:13;;;;;;;11.60;10.47;;;;;;;;;;5070135;28;20163;-50
2021/01/22 09:44:38;;;;;;;10.00;9.00;;;;;;;;;;5069982;28;20174;-50
2021/01/22 09:47:04;;;;;;;11.40;10.20;;;;;;;;;;5068041;28;20228;-50
2021/01/22 09:49:29;;;;;;;11.03;9.93;;;;;;;;;;5066168;28;20187;-48
2021/01/22 09:51:54;;;;;;;11.20;8.80;;;;;;;;;;5067285;28;20603;-50
2021/01/22 09:54:20;;;;;;;11.52;9.85;;;;;;;;;;5068546;28;20671;-49
2021/01/22 09:56:45;;;;;;;11.63;9.77;;;;;;;;;;5067521;28;20190;-49
2021/01/22 09:59:10;;;;;;;10.80;9.70;;;;;;;;;;5067715;28;20198;-49
2021/01/22 10:01:35;;;;;;;12.65;9.80;;;;;;;;;;5068955;28;20631;-50
2021/01/22 10:04:01;;;;;;;9.50;8.50;;;;;;;;;;5070096;28;20176;-48
2021/01/22 10:06:26;;;;;;;10.73;8.53;;;;;;;;;;5060724;28;20209;-48
2021/01/22 10:08:51;;;;;;;9.10;8.20;;;;;;;;;;5069292;28;20677;-51
2021/01/22 10:11:16;;;;;;;9.23;7.83;;;;;;;;;;5068967;28;20351;-48
2021/01/22 10:13:42;;;;;;;;;;;;;;;;;;5069479;28;20039;-50
2021/01/22 10:16:07;;;;;;;8.68;7.55;;;;;;;;;;5056907;28;20707;-49
2021/01/22 10:18:32;;;;;;;8.23;7.50;;;;;;;;;;5063277;28;24415;-49
2021/01/22 10:20:57;;;;;;;10.30;8.40;;;;;;;;;;5062414;28;20260;-49
2021/01/22 10:23:22;;;;;;;9.73;8.73;;;;;;;;;;5066649;28;20196;-49
2021/01/22 10:25:47;;;;;;;;;;;;;;;;;;5062447;28;20336;-49
2021/01/22 10:28:12;;;;;;;;;;;;;;;;;;5067913;28;19908;-49
2021/01/22 10:30:37;;;;;;;;;;;;;;;;;;5061119;28;19931;-48
2021/01/22 10:33:02;;;;;;;;;;;;;;;;;;5068744;28;19908;-49
2021/01/22 10:35:27;;;;;;;10.15;8.88;;;;;;;;;;5067014;28;20693;-48
2021/01/22 10:37:53;;;;;;;10.20;9.20;;;;;;;;;;5057747;28;24461;-49
2021/01/22 10:40:18;;;;;;;10.20;9.20;;;;;;;;;;5059281;28;24939;-49
2021/01/22 10:42:43;;;;;;;11.13;8.90;;;;;;;;;;5066834;28;24415;-50
2021/01/22 10:45:09;;;;;;;9.80;8.80;;;;;;;;;;5063883;28;24465;-48
2021/01/22 10:47:34;;;;;;;10.20;9.20;;;;;;;;;;5063332;28;24979;-49
2021/01/22 10:49:59;;;;;;;8.50;7.70;;;;;;;;;;5064651;28;25209;-49
2021/01/22 10:52:24;;;;;;;9.90;8.70;;;;;;;;;;5063601;28;24433;-49
2021/01/22 10:54:50;;;;;;;9.40;8.50;;;;;;;;;;5060717;28;25680;-49
2021/01/22 10:57:15;;;;;;;8.82;8.02;;;;;;;;;;5065285;28;24414;-48
2021/01/22 10:59:40;;;;;;;8.93;7.90;;;;;;;;;;5067295;28;24446;-50
2021/01/22 11:02:08;;;;;;;8.30;7.50;;;;;;;;;;5059019;28;24529;-49
2021/01/22 11:04:34;;;;;;;7.97;7.18;;;;;;;;;;5067040;28;24418;-48
2021/01/22 11:06:59;;;;;;;8.00;7.20;;;;;;;;;;5065393;28;24449;-50
2021/01/22 11:09:24;;;;;;;8.45;7.55;;;;;;;;;;5059004;28;24417;-49
2021/01/22 11:11:49;;;;;;;8.48;7.50;;;;;;;;;;5060519;28;24407;-49
2021/01/22 11:14:14;;;;;;;9.00;8.10;;;;;;;;;;5064146;28;24422;-49
2021/01/22 11:16:40;;;;;;;10.75;9.10;;;;;;;;;;5063601;28;24545;-49
2021/01/22 11:19:06;;;;;;;9.02;8.07;;;;;;;;;;5063753;28;24411;-49
2021/01/22 11:21:32;;;;;;;9.20;8.30;;;;;;;;;;5063761;28;26120;-49
2021/01/22 11:23:57;;;;;;;7.90;7.20;;;;;;;;;;5056773;28;24411;-49
2021/01/22 11:26:22;;;;;;;8.10;7.30;;;;;;;;;;5053134;28;24979;-48
2021/01/22 11:28:47;;;;;;;8.20;7.50;;;;;;;;;;5060951;28;24436;-49
2021/01/22 11:31:12;;;;;;;8.10;7.30;;;;;;;;;;5069605;28;24976;-49
2021/01/22 11:33:38;;;;;;;7.88;7.07;;;;;;;;;;5064989;28;24492;-49
2021/01/22 11:36:03;;;;;;;8.38;7.35;;;;;;;;;;5063396;28;24423;-49
2021/01/22 11:38:28;;;;;;;9.33;7.50;;;;;;;;;;5065825;28;24430;-50
2021/01/22 11:40:53;;;;;;;7.20;6.50;;;;;;;;;;5065373;28;24430;-49
2021/01/22 11:43:18;;;;;;;8.30;7.40;;;;;;;;;;5070229;28;24822;-48
2021/01/22 11:45:44;;;;;;;8.20;7.37;;;;;;;;;;5054026;28;24407;-49
2021/01/22 11:48:09;;;;;;;7.80;7.00;;;;;;;;;;5068375;28;24417;-49
2021/01/22 11:50:34;;;;;;;7.70;6.73;;;;;;;;;;5067972;28;24431;-51
2021/01/22 11:53:00;;;;;;;7.95;6.95;;;;;;;;;;5067930;28;25004;-50
2021/01/22 11:55:25;;;;;;;6.85;6.15;;;;;;;;;;5070229;28;24536;-50
2021/01/22 11:57:50;;;;;;;7.20;6.50;;;;;;;;;;5067778;28;24473;-49
2021/01/22 12:00:15;;;;;;;7.60;6.67;;;;;;;;;;5064565;28;24825;-50
2021/01/22 12:02:41;;;;;;;7.23;6.53;;;;;;;;;;5058875;28;24419;-50
2021/01/22 12:05:06;;;;;;;9.82;7.50;;;;;;;;;;5062194;28;24444;-49
2021/01/22 12:07:31;;;;;;;8.57;6.77;;;;;;;;;;5065822;28;24414;-50
2021/01/22 12:09:56;;;;;;;6.90;6.20;;;;;;;;;;5067628;28;24969;-49
2021/01/22 12:12:22;;;;;;;7.87;6.90;;;;;;;;;;5066240;28;24411;-49
2021/01/22 12:14:47;;;;;;;6.50;5.90;;;;;;;;;;5067486;28;24989;-50
2021/01/22 12:17:12;;;;;;;6.95;5.80;;;;;;;;;;5066460;28;24512;-49
2021/01/22 12:19:38;;;;;;;7.05;6.35;;;;;;;;;;5064601;28;24430;-50
2021/01/22 12:22:03;;;;;;;6.70;6.00;;;;;;;;;;5063574;28;25036;-49
2021/01/22 12:24:28;;;;;;;7.00;6.30;;;;;;;;;;5064158;28;24426;-49
2021/01/22 12:26:53;;;;;;;6.57;5.97;;;;;;;;;;5065737;28;24488;-50
2021/01/22 12:29:18;;;;;;;6.10;5.50;;;;;;;;;;5065256;28;24421;-49
2021/01/22 12:31:43;;;;;;;6.20;5.60;;;;;;;;;;5060330;28;24542;-49
2021/01/22 12:34:09;;;;;;;6.25;5.65;;;;;;;;;;5066948;28;24425;-49
2021/01/22 12:36:34;;;;;;;6.10;5.55;;;;;;;;;;5063655;28;24457;-48
2021/01/22 12:39:01;;;;;;;6.33;5.60;;;;;;;;;;5059005;28;24406;-49
2021/01/22 12:41:26;;;;;;;5.85;4.65;;;;;;;;;;5067366;28;24992;-49
2021/01/22 12:43:51;;;;;;;3.30;2.40;;;;;;;;;;5067189;28;24419;-49
2021/01/22 12:46:16;;;;;;;1.92;1.58;;;;;;;;;;5069511;28;24429;-49
2021/01/22 12:48:41;;;;;;;2.47;1.30;;;;;;;;;;5064901;28;24427;-50
2021/01/22 12:51:07;;;;;;;1.50;1.20;;;;;;;;;;5067288;28;24491;-49
2021/01/22 12:53:32;;;;;;;1.23;1.00;;;;;;;;;;5068207;28;24453;-48
2021/01/22 12:55:57;;;;;;;2.40;1.20;;;;;;;;;;5063615;28;25091;-49
2021/01/22 12:58:22;;;;;;;1.80;1.25;;;;;;;;;;5065423;28;24576;-49
2021/01/22 13:00:47;;;;;;;1.20;1.10;;;;;;;;;;5068463;28;24849;-49
2021/01/22 13:03:12;;;;;;;1.80;1.20;;;;;;;;;;5066013;28;24418;-49
2021/01/22 13:05:37;;;;;;;2.00;1.20;;;;;;;;;;5058440;28;25027;-49
2021/01/22 13:08:03;;;;;;;1.80;1.05;;;;;;;;;;5058733;28;24406;-49
2021/01/22 13:10:28;;;;;;;1.87;1.30;;;;;;;;;;5066597;28;24515;-49
2021/01/22 13:12:53;;;;;;;2.40;1.20;;;;;;;;;;5068051;28;24414;-49
2021/01/22 13:15:18;;;;;;;2.27;1.20;;;;;;;;;;5060220;28;24457;-49
2021/01/22 13:17:44;;;;;;;1.67;1.10;;;;;;;;;;5064121;28;24567;-49
2021/01/22 13:20:09;;;;;;;3.07;1.10;;;;;;;;;;5063866;28;24469;-49
2021/01/22 13:22:35;;;;;;;2.00;1.30;;;;;;;;;;5068980;28;24508;-49
2021/01/22 13:25:01;;;;;;;1.70;1.20;;;;;;;;;;5061992;28;24486;-49
2021/01/22 13:27:26;;;;;;;2.80;1.90;;;;;;;;;;5067587;28;20585;-49
2021/01/22 13:29:51;;;;;;;3.20;1.97;;;;;;;;;;5066453;28;21010;-49
2021/01/22 13:32:16;;;;;;;1.80;1.60;;;;;;;;;;5068763;28;24431;-48
2021/01/22 13:34:41;;;;;;;2.10;1.60;;;;;;;;;;5063502;28;24422;-49
2021/01/22 13:37:06;;;;;;;2.80;2.40;;;;;;;;;;5068847;28;20597;-49
2021/01/22 13:39:31;;;;;;;;;;;;;;;;;;5060331;28;20028;-49
2021/01/22 13:41:57;;;;;;;;;;;;;;;;;;5067715;28;20358;-48
2021/01/22 13:44:22;;;;;;;;;;;;;;;;;;5066410;28;19916;-50
2021/01/22 13:46:47;;;;;;;;;;;;;;;;;;5062313;28;19912;-48
2021/01/22 13:49:12;;;;;;;;;;;;;;;;;;5062012;28;19913;-49
2021/01/22 13:51:37;;;;;;;;;;;;;;;;;;5059280;28;20057;-48
2021/01/22 13:54:02;;;;;;;;;;;;;;;;;;5058260;28;19911;-49
2021/01/22 13:56:27;;;;;;;;;;;;;;;;;;5062127;28;19942;-48
2021/01/22 13:58:52;;;;;;;;;;;;;;;;;;5060104;28;19924;-49
2021/01/22 14:01:18;;;;;;;;;;;;;;;;;;5063941;28;19931;-48
2021/01/22 14:03:43;;;;;;;;;;;;;;;;;;5067086;28;19908;-49
2021/01/22 14:06:08;;;;;;;;;;;;;;;;;;5058896;28;19904;-48
2021/01/22 14:08:33;;;;;;;;;;;;;;;;;;5057940;28;20504;-49
2021/01/22 14:10:58;;;;;;;1.90;1.65;;;;;;;;;;5058553;28;20401;-48
2021/01/22 14:13:23;;;;;;;3.00;1.70;;;;;;;;;;5058211;28;24464;-49
2021/01/22 14:15:48;;;;;;;2.10;1.60;;;;;;;;;;5065333;28;24538;-49
2021/01/22 14:18:14;;;;;;;2.17;1.50;;;;;;;;;;5061968;28;25332;-50
2021/01/22 14:20:39;;;;;;;1.75;1.30;;;;;;;;;;5064510;28;24446;-50
2021/01/22 14:23:04;;;;;;;1.50;1.40;;;;;;;;;;5058548;28;25014;-49
2021/01/22 14:25:30;;;;;;;1.77;1.20;;;;;;;;;;5063347;28;24467;-50
2021/01/22 14:27:56;;;;;;;1.70;1.10;;;;;;;;;;5051155;28;24472;-50